Time;durP1;ratioP1;P1;durP2;ratioP2;P2;SDS_P1;SDS_P2;PMS_P1;PMS_P2;Temp;Humidity;BMP_temperature;BMP_pressure;BME280_temperature;BME280_humidity;BME280_pressure;Samples;Min_cycle;Max_cycle;Signal;HPM_P1;HPM_P2
2024/04/14 00:01:10;;;;;;;6.80;6.20;;;;;;;;;;5484823;26;20287;-53
2024/04/14 00:03:38;;;;;;;7.30;6.60;;;;;;;;;;5486895;26;20289;-55
2024/04/14 00:06:04;;;;;;;6.85;6.25;;;;;;;;;;5484886;26;20231;-53
2024/04/14 00:08:32;;;;;;;6.93;6.32;;;;;;;;;;5487366;26;20286;-57
2024/04/14 00:10:58;;;;;;;6.97;6.38;;;;;;;;;;5484539;26;20277;-55
2024/04/14 00:13:26;;;;;;;5.80;5.32;;;;;;;;;;5424328;26;20696;-54
2024/04/14 00:15:58;;;;;;;6.70;6.10;;;;;;;;;;5484597;26;20359;-55
2024/04/14 00:18:29;;;;;;;7.55;6.85;;;;;;;;;;5487234;26;20581;-58
2024/04/14 00:20:55;;;;;;;7.15;6.55;;;;;;;;;;5484684;26;20231;-55
2024/04/14 00:23:23;;;;;;;7.65;6.95;;;;;;;;;;5423848;26;20227;-57
2024/04/14 00:25:49;;;;;;;6.40;5.82;;;;;;;;;;5484503;26;20266;-56
2024/04/14 00:28:17;;;;;;;6.10;5.60;;;;;;;;;;5486753;26;20228;-55
2024/04/14 00:30:42;;;;;;;6.50;5.90;;;;;;;;;;5484678;26;20239;-56
2024/04/14 00:33:10;;;;;;;6.63;6.03;;;;;;;;;;5485657;26;20355;-55
2024/04/14 00:35:41;;;;;;;7.22;6.57;;;;;;;;;;5484230;26;20762;-57
2024/04/14 00:38:09;;;;;;;6.78;6.18;;;;;;;;;;5486667;26;20277;-57
2024/04/14 00:40:34;;;;;;;7.15;6.47;;;;;;;;;;5484301;26;20715;-56
2024/04/14 00:43:03;;;;;;;7.43;5.53;;;;;;;;;;5423356;26;20226;-56
2024/04/14 00:45:28;;;;;;;6.40;5.80;;;;;;;;;;5484209;26;20227;-56
2024/04/14 00:47:57;;;;;;;5.80;5.40;;;;;;;;;;5486437;26;20227;-56
2024/04/14 00:50:23;;;;;;;5.78;5.15;;;;;;;;;;5484371;26;20612;-55
2024/04/14 00:52:54;;;;;;;4.90;4.50;;;;;;;;;;5486278;26;20313;-55
2024/04/14 00:55:20;;;;;;;5.95;5.45;;;;;;;;;;5483853;26;20234;-56
2024/04/14 00:57:50;;;;;;;5.57;5.03;;;;;;;;;;5485493;26;20331;-53
2024/04/14 01:00:16;;;;;;;4.82;4.38;;;;;;;;;;5483904;26;20905;-58
2024/04/14 01:02:45;;;;;;;5.95;4.88;;;;;;;;;;5486485;26;20312;-54
2024/04/14 01:05:10;;;;;;;4.22;3.88;;;;;;;;;;5483615;26;20269;-55
2024/04/14 01:07:39;;;;;;;4.68;4.28;;;;;;;;;;5423067;26;20753;-55
2024/04/14 01:10:08;;;;;;;4.70;4.40;;;;;;;;;;5484019;26;20270;-55
2024/04/14 01:12:36;;;;;;;4.65;3.95;;;;;;;;;;5422991;26;20227;-55
2024/04/14 01:15:02;;;;;;;3.75;3.45;;;;;;;;;;5483944;26;20281;-54
2024/04/14 01:17:30;;;;;;;4.90;4.40;;;;;;;;;;5486003;26;20230;-57
2024/04/14 01:19:56;;;;;;;4.63;4.30;;;;;;;;;;5483777;26;20261;-56
2024/04/14 01:22:24;;;;;;;5.68;4.47;;;;;;;;;;5486421;26;20265;-53
2024/04/14 01:24:50;;;;;;;4.82;4.43;;;;;;;;;;5483664;26;20947;-56
2024/04/14 01:27:20;;;;;;;5.65;5.07;;;;;;;;;;5485859;26;20223;-54
2024/04/14 01:29:46;;;;;;;4.18;3.83;;;;;;;;;;5483481;26;20335;-57
2024/04/14 01:32:14;;;;;;;4.35;4.03;;;;;;;;;;5485771;26;20640;-56
2024/04/14 01:34:40;;;;;;;6.63;5.50;;;;;;;;;;5483531;26;20848;-57
2024/04/14 01:37:08;;;;;;;4.95;4.55;;;;;;;;;;5486255;26;20226;-56
2024/04/14 01:39:34;;;;;;;4.22;3.85;;;;;;;;;;5483146;26;20227;-57
2024/04/14 01:42:02;;;;;;;5.25;4.60;;;;;;;;;;5485979;26;20268;-55
2024/04/14 01:44:30;;;;;;;4.07;3.78;;;;;;;;;;5420992;26;20226;-56
2024/04/14 01:46:59;;;;;;;4.65;4.22;;;;;;;;;;5485926;26;20231;-54
2024/04/14 01:49:24;;;;;;;5.53;4.35;;;;;;;;;;5483458;26;20274;-55
2024/04/14 01:51:52;;;;;;;6.38;5.13;;;;;;;;;;5422460;26;20222;-57
2024/04/14 01:54:18;;;;;;;5.13;4.63;;;;;;;;;;5482929;26;20243;-56
2024/04/14 01:56:46;;;;;;;5.05;4.53;;;;;;;;;;5485739;26;20742;-56
2024/04/14 01:59:12;;;;;;;4.43;4.03;;;;;;;;;;5419924;26;20348;-57
2024/04/14 02:01:43;;;;;;;5.38;4.88;;;;;;;;;;5485431;26;20230;-56
2024/04/14 02:04:08;;;;;;;6.43;5.82;;;;;;;;;;5482933;26;20227;-53
2024/04/14 02:06:37;;;;;;;4.80;4.40;;;;;;;;;;5422382;26;20231;-57
2024/04/14 02:09:02;;;;;;;5.40;4.97;;;;;;;;;;5483023;26;20286;-53
2024/04/14 02:11:31;;;;;;;5.75;5.10;;;;;;;;;;5485412;26;20227;-53
2024/04/14 02:13:57;;;;;;;6.50;5.82;;;;;;;;;;5482715;26;20238;-55
2024/04/14 02:16:25;;;;;;;5.03;4.63;;;;;;;;;;5485545;26;20222;-55
2024/04/14 02:18:53;;;;;;;5.15;4.70;;;;;;;;;;5482705;26;20231;-54
2024/04/14 02:21:21;;;;;;;5.40;4.55;;;;;;;;;;5485236;26;20234;-57
2024/04/14 02:23:47;;;;;;;5.82;5.28;;;;;;;;;;5482677;26;20252;-55
2024/04/14 02:26:15;;;;;;;4.70;4.30;;;;;;;;;;5485200;26;20222;-53
2024/04/14 02:28:40;;;;;;;5.47;4.97;;;;;;;;;;5482679;26;20273;-57
2024/04/14 02:31:09;;;;;;;4.55;4.25;;;;;;;;;;5485527;26;20704;-56
2024/04/14 02:33:34;;;;;;;4.88;4.47;;;;;;;;;;5482266;26;20739;-52
2024/04/14 02:36:05;;;;;;;3.90;3.60;;;;;;;;;;5484957;26;20235;-54
2024/04/14 02:38:31;;;;;;;4.53;4.13;;;;;;;;;;5420293;26;20277;-54
2024/04/14 02:41:01;;;;;;;4.55;4.13;;;;;;;;;;5484847;26;20715;-56
2024/04/14 02:43:27;;;;;;;4.05;3.75;;;;;;;;;;5420376;26;20235;-55
2024/04/14 02:45:56;;;;;;;3.78;3.45;;;;;;;;;;5485498;26;20287;-55
2024/04/14 02:48:21;;;;;;;4.57;4.20;;;;;;;;;;5482946;26;20269;-56
2024/04/14 02:50:50;;;;;;;4.70;4.15;;;;;;;;;;5484710;26;20613;-55
2024/04/14 02:53:18;;;;;;;4.90;4.40;;;;;;;;;;5482066;26;21463;-54
2024/04/14 02:55:46;;;;;;;4.75;4.20;;;;;;;;;;5484994;26;20230;-55
2024/04/14 02:58:12;;;;;;;5.78;4.80;;;;;;;;;;5419976;26;20232;-55
2024/04/14 03:00:40;;;;;;;5.43;4.95;;;;;;;;;;5484549;26;20262;-54
2024/04/14 03:03:06;;;;;;;6.18;5.68;;;;;;;;;;5481945;26;20390;-56
2024/04/14 03:05:34;;;;;;;5.97;5.47;;;;;;;;;;5484435;26;20583;-53
2024/04/14 03:07:59;;;;;;;6.07;5.57;;;;;;;;;;5481661;26;20227;-55
2024/04/14 03:10:30;;;;;;;7.68;6.97;;;;;;;;;;5484748;26;20409;-57
2024/04/14 03:12:56;;;;;;;6.65;6.05;;;;;;;;;;5481726;26;20823;-56
2024/04/14 03:15:24;;;;;;;7.25;6.60;;;;;;;;;;5484611;26;20231;-57
2024/04/14 03:17:49;;;;;;;6.03;5.53;;;;;;;;;;5481688;26;20914;-55
2024/04/14 03:20:18;;;;;;;4.68;4.28;;;;;;;;;;5484441;26;20219;-58
2024/04/14 03:22:43;;;;;;;4.47;4.03;;;;;;;;;;5484710;26;20322;-57
2024/04/14 03:25:12;;;;;;;4.40;3.65;;;;;;;;;;5487802;26;20788;-56
2024/04/14 03:27:40;;;;;;;4.60;4.20;;;;;;;;;;5485385;26;20286;-57
2024/04/14 03:30:09;;;;;;;4.55;4.15;;;;;;;;;;5487511;26;20270;-54
2024/04/14 03:32:34;;;;;;;4.68;3.92;;;;;;;;;;5485128;26;20239;-56
2024/04/14 03:35:02;;;;;;;6.47;4.70;;;;;;;;;;5487510;26;20278;-55
2024/04/14 03:37:30;;;;;;;6.47;5.80;;;;;;;;;;5421881;26;20771;-56
2024/04/14 03:39:59;;;;;;;7.63;6.20;;;;;;;;;;5484932;26;20273;-57
2024/04/14 03:42:27;;;;;;;6.18;5.57;;;;;;;;;;5485248;26;20272;-57
2024/04/14 03:44:57;;;;;;;5.85;5.35;;;;;;;;;;5485048;26;20715;-54
2024/04/14 03:47:26;;;;;;;8.02;7.22;;;;;;;;;;5485037;26;20340;-56
2024/04/14 03:49:51;;;;;;;7.53;6.93;;;;;;;;;;5485042;26;20234;-54
2024/04/14 03:52:19;;;;;;;8.25;7.45;;;;;;;;;;5487049;26;20330;-58
2024/04/14 03:54:45;;;;;;;8.68;7.78;;;;;;;;;;5421818;26;20845;-57
2024/04/14 03:57:13;;;;;;;7.07;6.47;;;;;;;;;;5487320;26;20227;-56
2024/04/14 03:59:40;;;;;;;6.97;6.38;;;;;;;;;;5485070;26;20227;-57
2024/04/14 04:02:11;;;;;;;6.35;5.85;;;;;;;;;;5487360;26;20709;-56
2024/04/14 04:04:37;;;;;;;6.00;5.60;;;;;;;;;;5484245;26;20311;-56
2024/04/14 04:07:05;;;;;;;6.97;6.13;;;;;;;;;;5487550;26;20227;-54
2024/04/14 04:09:31;;;;;;;8.55;7.80;;;;;;;;;;5484325;26;20712;-56
2024/04/14 04:11:59;;;;;;;7.50;6.93;;;;;;;;;;5487089;26;20266;-54
2024/04/14 04:14:24;;;;;;;7.10;6.47;;;;;;;;;;5484822;26;20264;-55
2024/04/14 04:16:53;;;;;;;6.93;6.35;;;;;;;;;;5487087;26;20230;-54
2024/04/14 04:19:21;;;;;;;6.78;6.28;;;;;;;;;;5484382;26;20348;-54
2024/04/14 04:21:49;;;;;;;6.30;5.70;;;;;;;;;;5487274;26;20979;-55
2024/04/14 04:24:15;;;;;;;6.28;5.78;;;;;;;;;;5484386;26;20230;-56
2024/04/14 04:26:43;;;;;;;6.53;5.93;;;;;;;;;;5486890;26;20273;-52
2024/04/14 04:29:08;;;;;;;7.00;6.40;;;;;;;;;;5484477;26;20616;-54
2024/04/14 04:31:37;;;;;;;6.65;6.15;;;;;;;;;;5486762;26;20230;-55
2024/04/14 04:34:03;;;;;;;7.03;6.35;;;;;;;;;;5482825;26;20298;-54
2024/04/14 04:36:33;;;;;;;7.75;7.05;;;;;;;;;;5486749;26;20580;-57
2024/04/14 04:39:02;;;;;;;7.28;6.60;;;;;;;;;;5484408;26;20249;-55
2024/04/14 04:41:30;;;;;;;6.75;6.20;;;;;;;;;;5486776;26;20231;-57
2024/04/14 04:43:56;;;;;;;6.45;5.93;;;;;;;;;;5420874;26;20258;-56
2024/04/14 04:46:24;;;;;;;7.25;6.65;;;;;;;;;;5486846;26;20239;-56
2024/04/14 04:48:51;;;;;;;6.63;5.97;;;;;;;;;;5483794;26;20860;-56
2024/04/14 04:51:20;;;;;;;6.65;6.05;;;;;;;;;;5486425;26;20269;-56
2024/04/14 04:53:48;;;;;;;6.75;6.15;;;;;;;;;;5483866;26;20306;-57
2024/04/14 04:56:16;;;;;;;6.28;5.57;;;;;;;;;;5452988;26;20226;-57
2024/04/14 04:58:42;;;;;;;6.85;5.90;;;;;;;;;;5483998;26;20227;-57
2024/04/14 05:01:11;;;;;;;5.47;5.07;;;;;;;;;;5486701;26;20265;-57
2024/04/14 05:03:37;;;;;;;5.13;4.70;;;;;;;;;;5483990;26;20896;-57
2024/04/14 05:06:06;;;;;;;5.25;4.85;;;;;;;;;;5486274;26;20235;-56
2024/04/14 05:08:32;;;;;;;4.97;4.68;;;;;;;;;;5483740;26;20303;-56
2024/04/14 05:11:03;;;;;;;5.07;4.68;;;;;;;;;;5486011;26;20227;-56
2024/04/14 05:13:28;;;;;;;4.70;4.30;;;;;;;;;;5483917;26;20708;-59
2024/04/14 05:15:56;;;;;;;7.43;4.55;;;;;;;;;;5486077;26;20227;-60
2024/04/14 05:18:22;;;;;;;4.50;4.10;;;;;;;;;;5483931;26;20231;-56
2024/04/14 05:20:50;;;;;;;6.30;4.60;;;;;;;;;;5485935;26;20273;-59
2024/04/14 05:23:16;;;;;;;5.63;4.22;;;;;;;;;;5483673;26;20269;-59
2024/04/14 05:25:44;;;;;;;4.47;4.07;;;;;;;;;;5485806;26;20577;-57
2024/04/14 05:28:12;;;;;;;3.60;3.30;;;;;;;;;;5483419;26;20787;-57
2024/04/14 05:30:41;;;;;;;4.32;3.92;;;;;;;;;;5485688;26;20719;-57
2024/04/14 05:33:06;;;;;;;3.55;3.25;;;;;;;;;;5421627;26;20242;-59
2024/04/14 05:35:35;;;;;;;3.88;3.58;;;;;;;;;;5485753;26;20592;-57
2024/04/14 05:38:00;;;;;;;4.10;3.50;;;;;;;;;;5483375;26;20699;-59
2024/04/14 05:40:29;;;;;;;4.68;4.28;;;;;;;;;;5486207;26;20273;-57
2024/04/14 05:42:54;;;;;;;7.22;5.07;;;;;;;;;;5483553;26;20222;-57
2024/04/14 05:45:28;;;;;;;6.25;5.68;;;;;;;;;;5485475;26;20636;-58
2024/04/14 05:47:55;;;;;;;6.60;5.20;;;;;;;;;;5483295;26;20226;-60
2024/04/14 05:50:23;;;;;;;5.22;4.30;;;;;;;;;;5485736;26;20235;-57
2024/04/14 05:52:49;;;;;;;6.57;5.50;;;;;;;;;;5482920;26;20746;-60
2024/04/14 05:55:17;;;;;;;5.07;4.25;;;;;;;;;;5485631;26;20312;-57
2024/04/14 05:57:42;;;;;;;4.30;3.40;;;;;;;;;;5483268;26;20261;-60
2024/04/14 06:00:11;;;;;;;4.15;3.13;;;;;;;;;;5485245;26;20707;-57
2024/04/14 06:02:39;;;;;;;3.47;2.78;;;;;;;;;;5483148;26;20338;-57
2024/04/14 06:05:07;;;;;;;4.50;4.20;;;;;;;;;;5485483;26;20276;-58
2024/04/14 06:07:33;;;;;;;6.53;5.95;;;;;;;;;;5482991;26;20226;-57
2024/04/14 06:10:02;;;;;;;6.95;6.30;;;;;;;;;;5485212;26;20915;-60
2024/04/14 06:12:27;;;;;;;7.90;7.20;;;;;;;;;;5421022;26;20231;-60
2024/04/14 06:14:55;;;;;;;6.68;6.18;;;;;;;;;;5485312;26;20227;-58
2024/04/14 06:17:21;;;;;;;4.63;4.15;;;;;;;;;;5482596;26;20317;-58
2024/04/14 06:19:52;;;;;;;5.25;4.15;;;;;;;;;;5485390;26;20234;-58
2024/04/14 06:22:18;;;;;;;4.03;3.10;;;;;;;;;;5482615;26;20318;-58
2024/04/14 06:24:46;;;;;;;4.78;3.10;;;;;;;;;;5485287;26;20231;-60
2024/04/14 06:27:12;;;;;;;4.57;2.90;;;;;;;;;;5482604;26;20226;-60
2024/04/14 06:29:40;;;;;;;2.80;2.33;;;;;;;;;;5484798;26;20269;-60
2024/04/14 06:32:06;;;;;;;3.22;2.35;;;;;;;;;;5482468;26;20347;-60
2024/04/14 06:34:34;;;;;;;4.20;3.80;;;;;;;;;;5482701;26;20795;-59
2024/04/14 06:37:03;;;;;;;4.68;4.28;;;;;;;;;;5421128;26;20227;-60
2024/04/14 06:39:31;;;;;;;3.60;2.90;;;;;;;;;;5485230;26;20223;-60
2024/04/14 06:41:56;;;;;;;2.95;2.65;;;;;;;;;;5482646;26;20231;-58
2024/04/14 06:44:25;;;;;;;3.33;2.72;;;;;;;;;;5484803;26;20230;-60
2024/04/14 06:46:50;;;;;;;4.10;2.90;;;;;;;;;;5482302;26;20227;-60
2024/04/14 06:49:18;;;;;;;3.97;3.60;;;;;;;;;;5484669;26;20348;-59
2024/04/14 06:51:44;;;;;;;2.50;2.22;;;;;;;;;;5482391;26;20315;-59
2024/04/14 06:54:15;;;;;;;3.00;2.70;;;;;;;;;;5484458;26;20254;-59
2024/04/14 06:56:40;;;;;;;4.45;3.88;;;;;;;;;;5483186;26;20227;-59
2024/04/14 06:59:08;;;;;;;4.95;2.80;;;;;;;;;;5488296;26;20339;-59
2024/04/14 07:01:34;;;;;;;3.55;2.50;;;;;;;;;;5421980;26;20223;-59
2024/04/14 07:04:02;;;;;;;4.55;2.63;;;;;;;;;;5488194;26;20289;-59
2024/04/14 07:06:28;;;;;;;3.47;3.13;;;;;;;;;;5485514;26;20218;-59
2024/04/14 07:08:56;;;;;;;3.25;2.95;;;;;;;;;;5488066;26;20235;-60
2024/04/14 07:11:24;;;;;;;4.82;2.80;;;;;;;;;;5485444;26;20310;-59
2024/04/14 07:13:52;;;;;;;5.18;2.67;;;;;;;;;;5488095;26;20227;-59
2024/04/14 07:16:18;;;;;;;3.88;3.08;;;;;;;;;;5485069;26;20808;-59
2024/04/14 07:18:47;;;;;;;2.45;1.98;;;;;;;;;;5487865;26;20235;-59
2024/04/14 07:21:13;;;;;;;2.70;2.28;;;;;;;;;;5485539;26;20314;-59
2024/04/14 07:23:41;;;;;;;2.90;2.60;;;;;;;;;;5487826;26;20227;-59
2024/04/14 07:26:07;;;;;;;2.88;1.70;;;;;;;;;;5485205;26;20344;-58
2024/04/14 07:28:38;;;;;;;2.83;2.50;;;;;;;;;;5487594;26;20223;-59
2024/04/14 07:31:04;;;;;;;5.38;2.03;;;;;;;;;;5485243;26;20227;-59
2024/04/14 07:33:32;;;;;;;3.47;1.85;;;;;;;;;;5486498;26;20488;-60
2024/04/14 07:35:57;;;;;;;2.67;1.70;;;;;;;;;;5485089;26;20727;-59
2024/04/14 07:38:26;;;;;;;3.63;2.78;;;;;;;;;;5487989;26;20303;-59
2024/04/14 07:40:51;;;;;;;3.47;2.67;;;;;;;;;;5484855;26;20578;-60
2024/04/14 07:43:19;;;;;;;3.17;2.03;;;;;;;;;;5487527;26;20230;-59
2024/04/14 07:45:48;;;;;;;2.40;2.20;;;;;;;;;;5485045;26;20724;-60
2024/04/14 07:48:16;;;;;;;2.85;2.38;;;;;;;;;;5424406;26;20264;-59
2024/04/14 07:50:42;;;;;;;2.15;1.95;;;;;;;;;;5484872;26;20578;-59
2024/04/14 07:53:10;;;;;;;3.17;2.28;;;;;;;;;;5487168;26;20619;-60
2024/04/14 07:55:36;;;;;;;2.03;1.80;;;;;;;;;;5484563;26;20227;-59
2024/04/14 07:58:04;;;;;;;4.72;2.40;;;;;;;;;;5487283;26;20222;-59
2024/04/14 08:00:30;;;;;;;2.00;1.75;;;;;;;;;;5484419;26;20342;-56
2024/04/14 08:03:00;;;;;;;3.13;2.03;;;;;;;;;;5487652;26;20636;-59
2024/04/14 08:05:26;;;;;;;2.00;1.90;;;;;;;;;;5484997;26;20810;-59
2024/04/14 08:07:54;;;;;;;4.20;1.95;;;;;;;;;;5486928;26;20223;-59
2024/04/14 08:10:20;;;;;;;2.35;1.83;;;;;;;;;;5484470;26;20325;-59
2024/04/14 08:12:48;;;;;;;3.28;2.00;;;;;;;;;;5486936;26;20230;-59
2024/04/14 08:15:14;;;;;;;1.98;1.85;;;;;;;;;;5484570;26;20235;-57
2024/04/14 08:17:42;;;;;;;3.03;2.10;;;;;;;;;;5486713;26;20295;-59
2024/04/14 08:20:11;;;;;;;2.13;1.92;;;;;;;;;;5484638;26;20328;-59
2024/04/14 08:22:39;;;;;;;2.53;2.03;;;;;;;;;;5486920;26;20269;-60
2024/04/14 08:25:05;;;;;;;2.35;1.95;;;;;;;;;;5484308;26;20231;-59
2024/04/14 08:27:33;;;;;;;2.42;2.08;;;;;;;;;;5486954;26;20342;-58
2024/04/14 08:29:59;;;;;;;3.33;2.30;;;;;;;;;;5484365;26;20293;-57
2024/04/14 08:32:27;;;;;;;2.80;2.05;;;;;;;;;;5487115;26;20227;-57
2024/04/14 08:34:52;;;;;;;3.08;2.03;;;;;;;;;;5484194;26;20799;-57
2024/04/14 08:37:23;;;;;;;2.22;1.90;;;;;;;;;;5486819;26;20227;-59
2024/04/14 08:39:49;;;;;;;1.77;1.67;;;;;;;;;;5484240;26;20298;-58
2024/04/14 08:42:17;;;;;;;2.05;1.88;;;;;;;;;;5486780;26;20226;-59
2024/04/14 08:44:44;;;;;;;1.90;1.63;;;;;;;;;;5484062;26;20275;-59
2024/04/14 08:47:13;;;;;;;3.15;2.05;;;;;;;;;;5486321;26;20226;-57
2024/04/14 08:49:39;;;;;;;2.25;2.03;;;;;;;;;;5483833;26;20277;-59
2024/04/14 08:52:07;;;;;;;2.65;2.30;;;;;;;;;;5486428;26;20238;-59
2024/04/14 08:54:36;;;;;;;2.28;2.08;;;;;;;;;;5484023;26;20688;-59
2024/04/14 08:57:04;;;;;;;2.75;2.00;;;;;;;;;;5486429;26;20227;-59
2024/04/14 08:59:30;;;;;;;2.80;2.50;;;;;;;;;;5450781;26;21039;-60
2024/04/14 09:02:00;;;;;;;4.57;2.30;;;;;;;;;;5486502;26;20269;-59
2024/04/14 09:04:26;;;;;;;4.53;2.40;;;;;;;;;;5484065;26;20258;-59
2024/04/14 09:06:55;;;;;;;2.15;1.90;;;;;;;;;;5486255;26;20243;-59
2024/04/14 09:09:20;;;;;;;2.20;2.00;;;;;;;;;;5483337;26;20227;-59
2024/04/14 09:11:55;;;;;;;1.92;1.63;;;;;;;;;;5486687;26;20338;-59
2024/04/14 09:14:22;;;;;;;1.85;1.60;;;;;;;;;;5483948;26;20230;-59
2024/04/14 09:16:50;;;;;;;2.85;1.90;;;;;;;;;;5486456;26;20306;-59
2024/04/14 09:19:17;;;;;;;2.70;2.20;;;;;;;;;;5482606;26;20376;-59
2024/04/14 09:21:46;;;;;;;1.45;1.35;;;;;;;;;;5486040;26;20327;-60
2024/04/14 09:24:12;;;;;;;2.13;1.65;;;;;;;;;;5483530;26;20242;-59
2024/04/14 09:26:40;;;;;;;2.22;1.70;;;;;;;;;;5486044;26;20750;-57
2024/04/14 09:29:08;;;;;;;1.98;1.75;;;;;;;;;;5483780;26;20223;-59
2024/04/14 09:31:37;;;;;;;1.73;1.45;;;;;;;;;;5485979;26;20227;-60
2024/04/14 09:34:02;;;;;;;1.88;1.67;;;;;;;;;;5483633;26;20309;-59
2024/04/14 09:36:31;;;;;;;2.13;1.50;;;;;;;;;;5485798;26;20227;-59
2024/04/14 09:38:58;;;;;;;2.00;1.42;;;;;;;;;;5483395;26;20227;-59
2024/04/14 09:41:27;;;;;;;2.88;1.88;;;;;;;;;;5485993;26;20235;-60
2024/04/14 09:43:54;;;;;;;2.00;1.80;;;;;;;;;;5483215;26;20238;-60
2024/04/14 09:46:26;;;;;;;2.78;1.77;;;;;;;;;;5485595;26;20222;-59
2024/04/14 09:48:52;;;;;;;1.75;1.55;;;;;;;;;;5483048;26;20284;-59
2024/04/14 09:51:21;;;;;;;2.72;1.60;;;;;;;;;;5485601;26;20631;-59
2024/04/14 09:53:47;;;;;;;1.88;1.67;;;;;;;;;;5482792;26;20246;-59
2024/04/14 09:56:16;;;;;;;2.05;1.60;;;;;;;;;;5422294;26;20291;-59
2024/04/14 09:58:43;;;;;;;2.65;1.77;;;;;;;;;;5483234;26;20226;-60
2024/04/14 10:01:13;;;;;;;3.65;2.03;;;;;;;;;;5485475;26;20329;-59
2024/04/14 10:03:42;;;;;;;2.70;1.90;;;;;;;;;;5482736;26;20227;-59
2024/04/14 10:06:11;;;;;;;2.30;2.10;;;;;;;;;;5485727;26;20363;-58
2024/04/14 10:08:37;;;;;;;2.08;1.85;;;;;;;;;;5483085;26;20223;-59
2024/04/14 10:11:06;;;;;;;2.88;2.63;;;;;;;;;;5485278;26;20334;-59
2024/04/14 10:13:46;;;;;;;2.63;2.42;;;;;;;;;;5482919;26;20273;-58
2024/04/14 10:16:14;;;;;;;3.25;2.70;;;;;;;;;;5422071;26;20230;-58
2024/04/14 10:18:44;;;;;;;2.40;1.98;;;;;;;;;;5482703;26;20231;-59
2024/04/14 10:21:14;;;;;;;1.38;1.10;;;;;;;;;;5485574;26;20261;-58
2024/04/14 10:23:43;;;;;;;2.45;2.00;;;;;;;;;;5419916;26;20219;-59
2024/04/14 10:26:16;;;;;;;1.60;1.40;;;;;;;;;;5422768;26;20235;-58
2024/04/14 10:28:47;;;;;;;1.90;1.50;;;;;;;;;;5482621;26;20712;-59
2024/04/14 10:31:26;;;;;;;1.48;1.38;;;;;;;;;;5483449;26;20750;-58
2024/04/14 10:34:05;;;;;;;1.40;1.30;;;;;;;;;;5482337;26;20308;-58
2024/04/14 10:36:34;;;;;;;1.42;1.15;;;;;;;;;;5484803;26;20226;-59
2024/04/14 10:39:00;;;;;;;1.80;1.70;;;;;;;;;;5482169;26;20223;-58
2024/04/14 10:41:29;;;;;;;2.10;1.50;;;;;;;;;;5484764;26;20339;-58
2024/04/14 10:43:54;;;;;;;2.17;1.80;;;;;;;;;;5482557;26;20569;-59
2024/04/14 10:46:23;;;;;;;2.42;1.50;;;;;;;;;;5484768;26;20226;-59
2024/04/14 10:48:48;;;;;;;1.67;1.58;;;;;;;;;;5482270;26;20316;-59
2024/04/14 10:51:19;;;;;;;2.00;1.50;;;;;;;;;;5485003;26;20235;-59
2024/04/14 10:53:46;;;;;;;1.25;1.15;;;;;;;;;;5482255;26;20254;-59
2024/04/14 10:56:14;;;;;;;1.73;1.40;;;;;;;;;;5484423;26;20582;-59
2024/04/14 10:58:40;;;;;;;2.13;1.05;;;;;;;;;;5418706;26;20227;-59
2024/04/14 11:01:08;;;;;;;3.88;3.47;;;;;;;;;;5484747;26;20272;-59
2024/04/14 11:03:35;;;;;;;2.55;2.35;;;;;;;;;;5419683;26;20218;-59
2024/04/14 11:06:03;;;;;;;2.92;1.80;;;;;;;;;;5484373;26;20234;-59
2024/04/14 11:08:33;;;;;;;1.77;1.33;;;;;;;;;;5420118;26;20234;-59
2024/04/14 11:11:02;;;;;;;2.35;1.77;;;;;;;;;;5483925;26;20246;-60
2024/04/14 11:13:28;;;;;;;2.15;1.33;;;;;;;;;;5481831;26;20317;-59
2024/04/14 11:15:58;;;;;;;3.17;1.13;;;;;;;;;;5484176;26;20234;-59
2024/04/14 11:18:25;;;;;;;1.55;1.20;;;;;;;;;;5481844;26;20570;-60
2024/04/14 11:20:54;;;;;;;2.70;1.42;;;;;;;;;;5484152;26;20231;-59
2024/04/14 11:23:21;;;;;;;1.20;1.10;;;;;;;;;;5481681;26;20671;-59
2024/04/14 11:25:52;;;;;;;2.00;1.20;;;;;;;;;;5484214;26;20704;-59
2024/04/14 11:28:18;;;;;;;2.28;1.50;;;;;;;;;;5481135;26;20409;-59
2024/04/14 11:30:46;;;;;;;2.70;1.30;;;;;;;;;;5484147;26;20270;-59
2024/04/14 11:33:12;;;;;;;2.97;1.38;;;;;;;;;;5481285;26;20777;-59
2024/04/14 11:35:41;;;;;;;2.00;1.60;;;;;;;;;;5483928;26;20227;-59
2024/04/14 11:38:07;;;;;;;1.85;1.42;;;;;;;;;;5481234;26;20269;-60
2024/04/14 11:40:35;;;;;;;1.92;1.27;;;;;;;;;;5483603;26;20219;-59
2024/04/14 11:43:04;;;;;;;2.88;1.20;;;;;;;;;;5483050;26;20711;-59
2024/04/14 11:45:32;;;;;;;1.58;1.40;;;;;;;;;;5487629;26;20223;-59
2024/04/14 11:47:58;;;;;;;1.52;1.25;;;;;;;;;;5484974;26;20348;-59
2024/04/14 11:50:26;;;;;;;2.28;1.40;;;;;;;;;;5487578;26;20235;-59
2024/04/14 11:52:52;;;;;;;1.92;1.17;;;;;;;;;;5484745;26;20243;-59
2024/04/14 11:55:21;;;;;;;3.25;1.30;;;;;;;;;;5487527;26;20270;-59
2024/04/14 11:57:46;;;;;;;1.42;1.33;;;;;;;;;;5485172;26;20819;-60
2024/04/14 12:00:17;;;;;;;1.42;1.33;;;;;;;;;;5487387;26;20230;-60
2024/04/14 12:02:43;;;;;;;2.85;1.17;;;;;;;;;;5484871;26;20271;-59
2024/04/14 12:05:13;;;;;;;1.27;1.17;;;;;;;;;;5487238;26;20231;-59
2024/04/14 12:07:38;;;;;;;1.27;1.15;;;;;;;;;;5484453;26;20227;-59
2024/04/14 12:10:07;;;;;;;2.80;1.10;;;;;;;;;;5487375;26;20277;-59
2024/04/14 12:12:33;;;;;;;1.92;1.30;;;;;;;;;;5484481;26;20223;-59
2024/04/14 12:15:03;;;;;;;0.80;0.80;;;;;;;;;;5487109;26;20279;-59
2024/04/14 12:17:31;;;;;;;1.25;0.80;;;;;;;;;;5484582;26;20223;-59
2024/04/14 12:19:59;;;;;;;1.30;0.77;;;;;;;;;;5487091;26;20227;-59
2024/04/14 12:22:25;;;;;;;1.85;1.00;;;;;;;;;;5363986;26;20227;-59
2024/04/14 12:24:53;;;;;;;1.48;1.00;;;;;;;;;;5486740;26;20342;-59
2024/04/14 12:27:19;;;;;;;2.60;1.00;;;;;;;;;;5484081;26;20286;-59
2024/04/14 12:29:47;;;;;;;1.42;1.00;;;;;;;;;;5486655;26;20723;-60
2024/04/14 12:32:13;;;;;;;0.88;0.70;;;;;;;;;;5484369;26;20219;-59
2024/04/14 12:34:44;;;;;;;1.92;0.90;;;;;;;;;;5484377;26;20246;-60
2024/04/14 12:37:09;;;;;;;1.00;0.80;;;;;;;;;;5484599;26;20226;-60
2024/04/14 12:39:38;;;;;;;2.00;1.02;;;;;;;;;;5486965;26;20692;-59
2024/04/14 12:42:04;;;;;;;1.23;0.90;;;;;;;;;;5484600;26;20230;-59
2024/04/14 12:44:32;;;;;;;0.93;0.93;;;;;;;;;;5486889;26;20392;-59
2024/04/14 12:46:57;;;;;;;0.90;0.88;;;;;;;;;;5484308;26;20223;-59
2024/04/14 12:49:26;;;;;;;1.33;0.90;;;;;;;;;;5486750;26;20766;-59
2024/04/14 12:51:57;;;;;;;1.10;1.05;;;;;;;;;;5421852;26;20799;-59
2024/04/14 12:54:25;;;;;;;2.35;0.90;;;;;;;;;;5485608;26;20293;-60
2024/04/14 12:56:51;;;;;;;2.38;0.80;;;;;;;;;;5483967;26;20269;-59
2024/04/14 12:59:19;;;;;;;2.30;0.80;;;;;;;;;;5486637;26;20231;-60
2024/04/14 13:01:45;;;;;;;1.63;1.08;;;;;;;;;;5483993;26;20749;-60
2024/04/14 13:04:13;;;;;;;1.48;0.80;;;;;;;;;;5486420;26;20231;-59
2024/04/14 13:06:38;;;;;;;1.13;0.90;;;;;;;;;;5483542;26;20239;-59
2024/04/14 13:09:09;;;;;;;2.78;1.20;;;;;;;;;;5486561;26;20261;-59
2024/04/14 13:11:35;;;;;;;1.25;1.10;;;;;;;;;;5483692;26;20727;-59
2024/04/14 13:14:03;;;;;;;1.73;1.08;;;;;;;;;;5486049;26;20312;-59
2024/04/14 13:16:29;;;;;;;1.35;1.17;;;;;;;;;;5483943;26;20317;-60
2024/04/14 13:18:57;;;;;;;2.00;1.23;;;;;;;;;;5486183;26;20268;-59
2024/04/14 13:21:23;;;;;;;1.67;0.95;;;;;;;;;;5483884;26;20261;-59
2024/04/14 13:23:51;;;;;;;1.08;1.02;;;;;;;;;;5486079;26;20302;-59
2024/04/14 13:26:19;;;;;;;1.23;1.02;;;;;;;;;;5483652;26;20223;-59
2024/04/14 13:28:47;;;;;;;1.17;1.00;;;;;;;;;;5485913;26;20591;-59
2024/04/14 13:31:13;;;;;;;0.82;0.75;;;;;;;;;;5483251;26;20394;-59
2024/04/14 13:33:42;;;;;;;0.90;0.90;;;;;;;;;;5484588;26;20254;-59
2024/04/14 13:36:08;;;;;;;1.10;1.00;;;;;;;;;;5483581;26;20344;-60
2024/04/14 13:38:36;;;;;;;2.65;1.25;;;;;;;;;;5486139;26;20283;-60
2024/04/14 13:41:02;;;;;;;1.10;1.00;;;;;;;;;;5483244;26;20227;-60
2024/04/14 13:43:33;;;;;;;1.45;1.20;;;;;;;;;;5485813;26;20344;-59
2024/04/14 13:45:58;;;;;;;0.93;0.93;;;;;;;;;;5483043;26;20226;-59
2024/04/14 13:48:26;;;;;;;2.17;1.10;;;;;;;;;;5485999;26;20327;-59
2024/04/14 13:50:52;;;;;;;1.00;0.95;;;;;;;;;;5483060;26;20720;-59
2024/04/14 13:53:20;;;;;;;1.77;1.10;;;;;;;;;;5485547;26;20285;-59
2024/04/14 13:55:45;;;;;;;1.30;0.75;;;;;;;;;;5483060;26;20231;-59
2024/04/14 13:58:19;;;;;;;0.95;0.93;;;;;;;;;;5422378;26;20323;-59
2024/04/14 14:00:47;;;;;;;0.95;0.90;;;;;;;;;;5483354;26;20567;-59
2024/04/14 14:03:16;;;;;;;1.25;0.73;;;;;;;;;;5485344;26;20242;-59
2024/04/14 14:05:41;;;;;;;1.75;0.93;;;;;;;;;;5419774;26;20223;-59
2024/04/14 14:08:09;;;;;;;1.38;1.13;;;;;;;;;;5485536;26;20230;-59
2024/04/14 14:10:35;;;;;;;2.65;1.00;;;;;;;;;;5483074;26;20269;-59
2024/04/14 14:13:04;;;;;;;1.92;1.58;;;;;;;;;;5485289;26;20583;-59
2024/04/14 14:15:30;;;;;;;1.30;1.20;;;;;;;;;;5482797;26;20678;-59
2024/04/14 14:18:01;;;;;;;2.42;1.27;;;;;;;;;;5422276;26;21072;-59
2024/04/14 14:20:26;;;;;;;1.77;1.10;;;;;;;;;;5420056;26;20226;-59
2024/04/14 14:22:54;;;;;;;1.65;1.10;;;;;;;;;;5486264;26;20338;-59
2024/04/14 14:25:21;;;;;;;2.20;1.02;;;;;;;;;;5482696;26;20274;-58
2024/04/14 14:27:49;;;;;;;1.00;1.00;;;;;;;;;;5484942;26;20211;-59
2024/04/14 14:30:15;;;;;;;0.95;0.95;;;;;;;;;;5482638;26;20230;-57
2024/04/14 14:32:43;;;;;;;1.20;1.00;;;;;;;;;;5485005;26;20604;-59
2024/04/14 14:37:58;;;;;;;0.90;0.77;;;;;;;;;;5485653;26;20273;-60
2024/04/14 14:40:23;;;;;;;0.95;0.77;;;;;;;;;;5482435;26;20333;-60
2024/04/14 14:42:52;;;;;;;1.15;0.90;;;;;;;;;;5484760;26;20231;-60
2024/04/14 14:45:17;;;;;;;0.80;0.80;;;;;;;;;;5482315;26;20234;-59
2024/04/14 14:47:46;;;;;;;1.50;1.00;;;;;;;;;;5484718;26;20696;-59